Tecumseh — WTW9257 — position and weather

sailwx.info

Track history (hours):
 
Tides and Currents Weather Stations Pressure Air Temp Water Temp Dewpoint Dewpoint Depression Visibility Wind Speed Wind Dir Waves Ship Positions

Tecumseh

Owner: Sause Bros. Inc., COOS BAY, OR. More information available from US FCC via Universal Licensing System and Coast Guard Vessel Documentation Center.

Last reported at 2017-Nov-24 11:26 UTC. Time now 2017-Nov-24 11:31 UTC.
Position N 33°46' W 118°13'.

Length 90 m; draft 4.8 m.

Type: Tow > 200 m length. MMSI: 367133160.

Date/timePositionNaut miles runAvg speedWind from/ knotsBaromVisibWave heightAir tempDewpointWater temp
2017-Nov-24 11:26N 33°46' W 118°13'0 0.0
2017-Nov-24 10:56N 33°46' W 118°13'0 0.0
2017-Nov-24 10:26N 33°46' W 118°13'0 0.0
2017-Nov-24 09:50N 33°46' W 118°13'0 0.0
2017-Nov-24 09:26N 33°46' W 118°13'0 0.0
2017-Nov-24 08:56N 33°46' W 118°13'0 0.0
2017-Nov-24 08:26N 33°46' W 118°13'0 0.0
2017-Nov-24 07:56N 33°46' W 118°13'  
2017-Nov-20 00:30N 36°59' W 122°54'5 9.2
2017-Nov-20 00:00N 37°03' W 122°57'4 9.2
2017-Nov-19 23:31N 37°07' W 122°59'5 9.4
2017-Nov-19 23:01N 37°11' W 123°01'5 9.0
2017-Nov-19 22:31N 37°16' W 123°02'4 8.7
2017-Nov-19 22:00N 37°20' W 123°03'4 8.4
2017-Nov-19 21:31N 37°24' W 123°04'4 8.3
2017-Nov-19 21:00N 37°28' W 123°04'5 8.5
2017-Nov-19 20:26N 37°33' W 123°04'5 8.3
2017-Nov-19 19:53N 37°36' W 123°00'3 8.5
2017-Nov-19 19:30N 37°38' W 122°57'6 8.3
2017-Nov-19 18:45N 37°42' W 122°50'3 8.6
2017-Nov-19 18:23N 37°43' W 122°47'4 8.5
2017-Nov-19 17:58N 37°45' W 122°43'4 8.4
2017-Nov-19 17:30N 37°46' W 122°38'4 7.8
2017-Nov-19 17:01N 37°47' W 122°34'3 6.9
2017-Nov-19 16:31N 37°49' W 122°30'3 6.9
2017-Nov-19 16:00N 37°50' W 122°26'4 7.6
2017-Nov-19 15:31N 37°54' W 122°26'1 2.3
2017-Nov-19 15:01N 37°55' W 122°26'1 1.5
2017-Nov-19 14:30N 37°55' W 122°25'0 0.2
2017-Nov-19 14:00N 37°55' W 122°25'0 0.0
2017-Nov-19 13:30N 37°55' W 122°25'0 0.0
2017-Nov-19 12:30N 37°55' W 122°25'0 0.0
2017-Nov-19 11:54N 37°55' W 122°25'0 0.0
2017-Nov-19 11:30N 37°55' W 122°25'0 0.0
2017-Nov-19 11:00N 37°55' W 122°25'0 0.0
2017-Nov-19 10:30N 37°55' W 122°25'0 0.0
2017-Nov-19 10:00N 37°55' W 122°25'0 0.0
2017-Nov-19 09:30N 37°55' W 122°25'0 0.0
2017-Nov-19 09:00N 37°55' W 122°25'0 0.0
2017-Nov-19 08:30N 37°55' W 122°25'0 0.0
2017-Nov-19 08:00N 37°55' W 122°25'0 0.0
2017-Nov-19 07:30N 37°55' W 122°25'0 0.0
2017-Nov-19 07:01N 37°55' W 122°25'0 0.0
2017-Nov-19 06:31N 37°55' W 122°25'0 0.0
2017-Nov-19 06:01N 37°55' W 122°25'0 0.0
2017-Nov-19 05:31N 37°55' W 122°25'0 0.0
2017-Nov-19 05:01N 37°55' W 122°25'0 0.0
2017-Nov-19 04:31N 37°55' W 122°25'0 0.0
2017-Nov-19 04:01N 37°55' W 122°25'0 0.0
2017-Nov-19 03:30N 37°55' W 122°25'0 0.0
2017-Nov-19 03:00N 37°55' W 122°25'0 0.0
2017-Nov-19 02:31N 37°55' W 122°25'0 0.0
2017-Nov-19 02:01N 37°55' W 122°25'0 0.0
2017-Nov-19 01:31N 37°55' W 122°25'0 0.0
2017-Nov-19 01:01N 37°55' W 122°25'0 0.0
2017-Nov-19 00:30N 37°55' W 122°25'0 0.0
2017-Nov-19 00:00N 37°55' W 122°25'0 0.0
2017-Nov-18 23:31N 37°55' W 122°25'0 0.0
2017-Nov-18 23:00N 37°55' W 122°25'0 0.0
2017-Nov-18 22:31N 37°55' W 122°25'0 0.0
2017-Nov-18 22:01N 37°55' W 122°25'0 0.2
2017-Nov-18 21:30N 37°55' W 122°25'0 0.3
2017-Nov-18 20:59N 37°55' W 122°25'1 2.0
2017-Nov-18 20:30N 37°55' W 122°26'2 4.5
2017-Nov-18 20:01N 37°53' W 122°25'4 7.1
2017-Nov-18 19:31N 37°49' W 122°25'5 9.3
2017-Nov-18 19:01N 37°48' W 122°31'5 9.4
2017-Nov-18 18:31N 37°46' W 122°37'4 8.8
2017-Nov-18 18:00N 37°46' W 122°42'4 9.1
2017-Nov-18 17:31N 37°47' W 122°48'4 6.9
2017-Nov-18 17:00N 37°49' W 122°52'4 7.3
2017-Nov-18 16:31N 37°50' W 122°56'4 7.6
2017-Nov-18 16:01N 37°52' W 122°60'4 7.5
2017-Nov-18 15:31N 37°54' W 123°04'4 7.4
2017-Nov-18 15:01N 37°56' W 123°08'4 7.2
2017-Nov-18 14:31N 37°58' W 123°12'4 7.3
2017-Nov-18 14:00N 38°01' W 123°15'4 7.5
2017-Nov-18 13:30N 38°03' W 123°18'4 7.6
2017-Nov-18 13:00N 38°06' W 123°21'4 7.9
2017-Nov-18 12:31N 38°08' W 123°25'4 7.8
2017-Nov-18 12:00N 38°10' W 123°30'4 7.9
2017-Nov-18 11:31N 38°12' W 123°34'4 7.7
2017-Nov-18 11:00N 38°14' W 123°38'4 7.7
2017-Nov-18 10:31N 38°16' W 123°42'4 7.4
2017-Nov-18 10:00N 38°19' W 123°45'4 7.3
2017-Nov-18 09:30N 38°22' W 123°48'4 7.3
2017-Nov-18 09:00N 38°25' W 123°51'4 7.4
2017-Nov-18 08:31N 38°27' W 123°55'4 7.5
2017-Nov-18 08:01N 38°30' W 123°58'411 7.9
2017-Nov-16 04:03N 45°20' W 124°36'1 7.6
2017-Nov-16 03:58N 45°20' W 124°36'3 7.6
2017-Nov-16 03:30N 45°24' W 124°36'4 7.7
2017-Nov-16 03:00N 45°28' W 124°35'4 7.4
2017-Nov-16 02:31N 45°31' W 124°35'4 7.3
2017-Nov-16 02:00N 45°35' W 124°34'4 7.0
2017-Nov-16 01:30N 45°38' W 124°34'3 6.9
2017-Nov-16 01:00N 45°42' W 124°33'3 6.7
2017-Nov-16 00:30N 45°45' W 124°33'3 6.2
2017-Nov-16 00:00N 45°48' W 124°33'3 6.3
2017-Nov-15 23:30N 45°51' W 124°32'3 6.0
2017-Nov-15 23:00N 45°54' W 124°32'3 5.9
2017-Nov-15 22:30N 45°57' W 124°31'3 5.5
2017-Nov-15 22:01N 45°59' W 124°29'4 5.3
2017-Nov-15 21:19N 46°02' W 124°25'2 5.6
2017-Nov-15 21:01N 46°03' W 124°23'3 5.5
2017-Nov-15 20:30N 46°06' W 124°21'3 5.6
2017-Nov-15 20:00N 46°08' W 124°18'4 6.0
2017-Nov-15 19:20N 46°10' W 124°14'2 5.2
2017-Nov-15 18:53N 46°12' W 124°11'2 4.8
2017-Nov-15 18:30N 46°13' W 124°09'2 4.6
2017-Nov-15 18:00N 46°14' W 124°06'3 5.7
2017-Nov-15 17:24N 46°16' W 124°02'3 7.3
2017-Nov-15 17:00N 46°14' W 123°59'4 7.5
2017-Nov-15 16:26N 46°11' W 123°53'4 8.3
2017-Nov-15 16:01N 46°12' W 123°48'4 8.8
2017-Nov-15 15:30N 46°14' W 123°43'5 9.6
2017-Nov-15 15:01N 46°15' W 123°36'510.5
2017-Nov-15 14:30N 46°16' W 123°28'510.7
2017-Nov-15 14:00N 46°11' W 123°26'611.0
2017-Nov-15 13:30N 46°09' W 123°19'611.8
2017-Nov-15 13:00N 46°11' W 123°11'610.8
2017-Nov-15 12:30N 46°09' W 123°03'511.1
2017-Nov-15 12:00N 46°06' W 122°57'3 6.4
2017-Nov-15 11:29N 46°04' W 122°54'0 0.2
2017-Nov-15 10:58N 46°04' W 122°54'0 0.0
2017-Nov-15 10:28N 46°04' W 122°54'0 0.0
2017-Nov-15 09:55N 46°04' W 122°54'0 0.0
2017-Nov-15 09:28N 46°04' W 122°54'0 0.0
2017-Nov-15 08:55N 46°04' W 122°54'0 0.0
2017-Nov-15 08:28N 46°04' W 122°54'0 0.0
2017-Nov-15 07:55N 46°04' W 122°54'0 0.0
2017-Nov-15 07:22N 46°04' W 122°54'0 0.0
2017-Nov-15 06:52N 46°04' W 122°54'0 0.0
2017-Nov-15 06:25N 46°04' W 122°54'0 0.0
2017-Nov-15 05:52N 46°04' W 122°54'0 0.0
2017-Nov-15 05:25N 46°04' W 122°54'0 0.0
2017-Nov-15 04:58N 46°04' W 122°54'0 0.0
2017-Nov-15 04:28N 46°04' W 122°54'0 0.0
2017-Nov-15 03:43N 46°04' W 122°54'0 0.0
2017-Nov-15 03:28N 46°04' W 122°54'0 0.0
2017-Nov-15 02:58N 46°04' W 122°54'0 0.0
2017-Nov-15 02:13N 46°04' W 122°54'0 0.0
2017-Nov-15 01:58N 46°04' W 122°54'0 0.0
2017-Nov-15 01:25N 46°04' W 122°54'0 0.0
2017-Nov-15 00:58N 46°04' W 122°54'0 0.0
2017-Nov-15 00:25N 46°04' W 122°54'0 0.0
2017-Nov-14 23:58N 46°04' W 122°54'0 0.0
2017-Nov-14 23:28N 46°04' W 122°54'0 0.0
2017-Nov-14 22:49N 46°04' W 122°54'0 0.0
2017-Nov-14 22:22N 46°04' W 122°54'0 0.0
2017-Nov-14 21:58N 46°04' W 122°54'0 0.0
2017-Nov-14 21:28N 46°04' W 122°54'0 0.0
2017-Nov-14 20:58N 46°04' W 122°54'0 0.0
2017-Nov-14 20:28N 46°04' W 122°54'0 0.0
2017-Nov-14 19:58N 46°04' W 122°54'0 0.0
2017-Nov-14 19:28N 46°04' W 122°54'0 0.0
2017-Nov-14 18:58N 46°04' W 122°54'0 0.0
2017-Nov-14 18:25N 46°04' W 122°54'0 0.0
2017-Nov-14 17:58N 46°04' W 122°54'0 0.0
2017-Nov-14 17:25N 46°04' W 122°54'0 0.0
2017-Nov-14 16:58N 46°04' W 122°54'0 0.0
2017-Nov-14 16:22N 46°04' W 122°54'0 0.0
2017-Nov-14 15:58N 46°04' W 122°54'0 0.0
2017-Nov-14 15:28N 46°04' W 122°54'0 0.0
2017-Nov-14 14:55N 46°04' W 122°54'0 0.0
2017-Nov-14 14:25N 46°04' W 122°54'0 0.0
2017-Nov-14 13:46N 46°04' W 122°54'0 0.0
2017-Nov-14 13:28N 46°04' W 122°54'0 0.0
2017-Nov-14 12:55N 46°04' W 122°54'0 0.0
2017-Nov-14 12:28N 46°04' W 122°54'0 0.0
2017-Nov-14 11:58N 46°04' W 122°54'0 0.0
2017-Nov-14 11:28N 46°04' W 122°54'0 0.0
2017-Nov-14 10:58N 46°04' W 122°54'  
Track history (hours):
 
Tides and Currents Weather Stations Pressure Air Temp Water Temp Dewpoint Dewpoint Depression Visibility Wind Speed Wind Dir Waves Ship Positions

Tecumseh

Owner: Sause Bros. Inc., COOS BAY, OR. More information available from US FCC via Universal Licensing System and Coast Guard Vessel Documentation Center.

Last reported at 2017-Nov-24 11:26 UTC. Time now 2017-Nov-24 11:31 UTC.
Position N 33°46' W 118°13'.

Length 90 m; draft 4.8 m.

Type: Tow > 200 m length. MMSI: 367133160.

Date/timePositionNaut miles runAvg speedWind from/ knotsBaromVisibWave heightAir tempDewpointWater temp
2017-Nov-24 11:26N 33°46' W 118°13'0 0.0
2017-Nov-24 10:56N 33°46' W 118°13'0 0.0
2017-Nov-24 10:26N 33°46' W 118°13'0 0.0
2017-Nov-24 09:50N 33°46' W 118°13'0 0.0
2017-Nov-24 09:26N 33°46' W 118°13'0 0.0
2017-Nov-24 08:56N 33°46' W 118°13'0 0.0
2017-Nov-24 08:26N 33°46' W 118°13'0 0.0
2017-Nov-24 07:56N 33°46' W 118°13'  
2017-Nov-20 00:30N 36°59' W 122°54'5 9.2
2017-Nov-20 00:00N 37°03' W 122°57'4 9.2
2017-Nov-19 23:31N 37°07' W 122°59'5 9.4
2017-Nov-19 23:01N 37°11' W 123°01'5 9.0
2017-Nov-19 22:31N 37°16' W 123°02'4 8.7
2017-Nov-19 22:00N 37°20' W 123°03'4 8.4
2017-Nov-19 21:31N 37°24' W 123°04'4 8.3
2017-Nov-19 21:00N 37°28' W 123°04'5 8.5
2017-Nov-19 20:26N 37°33' W 123°04'5 8.3
2017-Nov-19 19:53N 37°36' W 123°00'3 8.5
2017-Nov-19 19:30N 37°38' W 122°57'6 8.3
2017-Nov-19 18:45N 37°42' W 122°50'3 8.6
2017-Nov-19 18:23N 37°43' W 122°47'4 8.5
2017-Nov-19 17:58N 37°45' W 122°43'4 8.4
2017-Nov-19 17:30N 37°46' W 122°38'4 7.8
2017-Nov-19 17:01N 37°47' W 122°34'3 6.9
2017-Nov-19 16:31N 37°49' W 122°30'3 6.9
2017-Nov-19 16:00N 37°50' W 122°26'4 7.6
2017-Nov-19 15:31N 37°54' W 122°26'1 2.3
2017-Nov-19 15:01N 37°55' W 122°26'1 1.5
2017-Nov-19 14:30N 37°55' W 122°25'0 0.2
2017-Nov-19 14:00N 37°55' W 122°25'0 0.0
2017-Nov-19 13:30N 37°55' W 122°25'0 0.0
2017-Nov-19 12:30N 37°55' W 122°25'0 0.0
2017-Nov-19 11:54N 37°55' W 122°25'0 0.0
2017-Nov-19 11:30N 37°55' W 122°25'0 0.0
2017-Nov-19 11:00N 37°55' W 122°25'0 0.0
2017-Nov-19 10:30N 37°55' W 122°25'0 0.0
2017-Nov-19 10:00N 37°55' W 122°25'0 0.0
2017-Nov-19 09:30N 37°55' W 122°25'0 0.0
2017-Nov-19 09:00N 37°55' W 122°25'0 0.0
2017-Nov-19 08:30N 37°55' W 122°25'0 0.0
2017-Nov-19 08:00N 37°55' W 122°25'0 0.0
2017-Nov-19 07:30N 37°55' W 122°25'0 0.0
2017-Nov-19 07:01N 37°55' W 122°25'0 0.0
2017-Nov-19 06:31N 37°55' W 122°25'0 0.0
2017-Nov-19 06:01N 37°55' W 122°25'0 0.0
2017-Nov-19 05:31N 37°55' W 122°25'0 0.0
2017-Nov-19 05:01N 37°55' W 122°25'0 0.0
2017-Nov-19 04:31N 37°55' W 122°25'0 0.0
2017-Nov-19 04:01N 37°55' W 122°25'0 0.0
2017-Nov-19 03:30N 37°55' W 122°25'0 0.0
2017-Nov-19 03:00N 37°55' W 122°25'0 0.0
2017-Nov-19 02:31N 37°55' W 122°25'0 0.0
2017-Nov-19 02:01N 37°55' W 122°25'0 0.0
2017-Nov-19 01:31N 37°55' W 122°25'0 0.0
2017-Nov-19 01:01N 37°55' W 122°25'0 0.0
2017-Nov-19 00:30N 37°55' W 122°25'0 0.0
2017-Nov-19 00:00N 37°55' W 122°25'0 0.0
2017-Nov-18 23:31N 37°55' W 122°25'0 0.0
2017-Nov-18 23:00N 37°55' W 122°25'0 0.0
2017-Nov-18 22:31N 37°55' W 122°25'0 0.0
2017-Nov-18 22:01N 37°55' W 122°25'0 0.2
2017-Nov-18 21:30N 37°55' W 122°25'0 0.3
2017-Nov-18 20:59N 37°55' W 122°25'1 2.0
2017-Nov-18 20:30N 37°55' W 122°26'2 4.5
2017-Nov-18 20:01N 37°53' W 122°25'4 7.1
2017-Nov-18 19:31N 37°49' W 122°25'5 9.3
2017-Nov-18 19:01N 37°48' W 122°31'5 9.4
2017-Nov-18 18:31N 37°46' W 122°37'4 8.8
2017-Nov-18 18:00N 37°46' W 122°42'4 9.1
2017-Nov-18 17:31N 37°47' W 122°48'4 6.9
2017-Nov-18 17:00N 37°49' W 122°52'4 7.3
2017-Nov-18 16:31N 37°50' W 122°56'4 7.6
2017-Nov-18 16:01N 37°52' W 122°60'4 7.5
2017-Nov-18 15:31N 37°54' W 123°04'4 7.4
2017-Nov-18 15:01N 37°56' W 123°08'4 7.2
2017-Nov-18 14:31N 37°58' W 123°12'4 7.3
2017-Nov-18 14:00N 38°01' W 123°15'4 7.5
2017-Nov-18 13:30N 38°03' W 123°18'4 7.6
2017-Nov-18 13:00N 38°06' W 123°21'4 7.9
2017-Nov-18 12:31N 38°08' W 123°25'4 7.8
2017-Nov-18 12:00N 38°10' W 123°30'4 7.9
2017-Nov-18 11:31N 38°12' W 123°34'4 7.7
2017-Nov-18 11:00N 38°14' W 123°38'4 7.7
2017-Nov-18 10:31N 38°16' W 123°42'4 7.4
2017-Nov-18 10:00N 38°19' W 123°45'4 7.3
2017-Nov-18 09:30N 38°22' W 123°48'4 7.3
2017-Nov-18 09:00N 38°25' W 123°51'4 7.4
2017-Nov-18 08:31N 38°27' W 123°55'4 7.5
2017-Nov-18 08:01N 38°30' W 123°58'411 7.9
2017-Nov-16 04:03N 45°20' W 124°36'1 7.6
2017-Nov-16 03:58N 45°20' W 124°36'3 7.6
2017-Nov-16 03:30N 45°24' W 124°36'4 7.7
2017-Nov-16 03:00N 45°28' W 124°35'4 7.4
2017-Nov-16 02:31N 45°31' W 124°35'4 7.3
2017-Nov-16 02:00N 45°35' W 124°34'4 7.0
2017-Nov-16 01:30N 45°38' W 124°34'3 6.9
2017-Nov-16 01:00N 45°42' W 124°33'3 6.7
2017-Nov-16 00:30N 45°45' W 124°33'3 6.2
2017-Nov-16 00:00N 45°48' W 124°33'3 6.3
2017-Nov-15 23:30N 45°51' W 124°32'3 6.0
2017-Nov-15 23:00N 45°54' W 124°32'3 5.9
2017-Nov-15 22:30N 45°57' W 124°31'3 5.5
2017-Nov-15 22:01N 45°59' W 124°29'4 5.3
2017-Nov-15 21:19N 46°02' W 124°25'2 5.6
2017-Nov-15 21:01N 46°03' W 124°23'3 5.5
2017-Nov-15 20:30N 46°06' W 124°21'3 5.6
2017-Nov-15 20:00N 46°08' W 124°18'4 6.0
2017-Nov-15 19:20N 46°10' W 124°14'2 5.2
2017-Nov-15 18:53N 46°12' W 124°11'2 4.8
2017-Nov-15 18:30N 46°13' W 124°09'2 4.6
2017-Nov-15 18:00N 46°14' W 124°06'3 5.7
2017-Nov-15 17:24N 46°16' W 124°02'3 7.3
2017-Nov-15 17:00N 46°14' W 123°59'4 7.5
2017-Nov-15 16:26N 46°11' W 123°53'4 8.3
2017-Nov-15 16:01N 46°12' W 123°48'4 8.8
2017-Nov-15 15:30N 46°14' W 123°43'5 9.6
2017-Nov-15 15:01N 46°15' W 123°36'510.5
2017-Nov-15 14:30N 46°16' W 123°28'510.7
2017-Nov-15 14:00N 46°11' W 123°26'611.0
2017-Nov-15 13:30N 46°09' W 123°19'611.8
2017-Nov-15 13:00N 46°11' W 123°11'610.8
2017-Nov-15 12:30N 46°09' W 123°03'511.1
2017-Nov-15 12:00N 46°06' W 122°57'3 6.4
2017-Nov-15 11:29N 46°04' W 122°54'0 0.2
2017-Nov-15 10:58N 46°04' W 122°54'0 0.0
2017-Nov-15 10:28N 46°04' W 122°54'0 0.0
2017-Nov-15 09:55N 46°04' W 122°54'0 0.0
2017-Nov-15 09:28N 46°04' W 122°54'0 0.0
2017-Nov-15 08:55N 46°04' W 122°54'0 0.0
2017-Nov-15 08:28N 46°04' W 122°54'0 0.0
2017-Nov-15 07:55N 46°04' W 122°54'0 0.0
2017-Nov-15 07:22N 46°04' W 122°54'0 0.0
2017-Nov-15 06:52N 46°04' W 122°54'0 0.0
2017-Nov-15 06:25N 46°04' W 122°54'0 0.0
2017-Nov-15 05:52N 46°04' W 122°54'0 0.0
2017-Nov-15 05:25N 46°04' W 122°54'0 0.0
2017-Nov-15 04:58N 46°04' W 122°54'0 0.0
2017-Nov-15 04:28N 46°04' W 122°54'0 0.0
2017-Nov-15 03:43N 46°04' W 122°54'0 0.0
2017-Nov-15 03:28N 46°04' W 122°54'0 0.0
2017-Nov-15 02:58N 46°04' W 122°54'0 0.0
2017-Nov-15 02:13N 46°04' W 122°54'0 0.0
2017-Nov-15 01:58N 46°04' W 122°54'0 0.0
2017-Nov-15 01:25N 46°04' W 122°54'0 0.0
2017-Nov-15 00:58N 46°04' W 122°54'0 0.0
2017-Nov-15 00:25N 46°04' W 122°54'0 0.0
2017-Nov-14 23:58N 46°04' W 122°54'0 0.0
2017-Nov-14 23:28N 46°04' W 122°54'0 0.0
2017-Nov-14 22:49N 46°04' W 122°54'0 0.0
2017-Nov-14 22:22N 46°04' W 122°54'0 0.0
2017-Nov-14 21:58N 46°04' W 122°54'0 0.0
2017-Nov-14 21:28N 46°04' W 122°54'0 0.0
2017-Nov-14 20:58N 46°04' W 122°54'0 0.0
2017-Nov-14 20:28N 46°04' W 122°54'0 0.0
2017-Nov-14 19:58N 46°04' W 122°54'0 0.0
2017-Nov-14 19:28N 46°04' W 122°54'0 0.0
2017-Nov-14 18:58N 46°04' W 122°54'0 0.0
2017-Nov-14 18:25N 46°04' W 122°54'0 0.0
2017-Nov-14 17:58N 46°04' W 122°54'0 0.0
2017-Nov-14 17:25N 46°04' W 122°54'0 0.0
2017-Nov-14 16:58N 46°04' W 122°54'0 0.0
2017-Nov-14 16:22N 46°04' W 122°54'0 0.0
2017-Nov-14 15:58N 46°04' W 122°54'0 0.0
2017-Nov-14 15:28N 46°04' W 122°54'0 0.0
2017-Nov-14 14:55N 46°04' W 122°54'0 0.0
2017-Nov-14 14:25N 46°04' W 122°54'0 0.0
2017-Nov-14 13:46N 46°04' W 122°54'0 0.0
2017-Nov-14 13:28N 46°04' W 122°54'0 0.0
2017-Nov-14 12:55N 46°04' W 122°54'0 0.0
2017-Nov-14 12:28N 46°04' W 122°54'0 0.0
2017-Nov-14 11:58N 46°04' W 122°54'0 0.0
2017-Nov-14 11:28N 46°04' W 122°54'0 0.0
2017-Nov-14 10:58N 46°04' W 122°54'  

Dump ship's entire track history